Fair Play, South Carolina
Current Conditions -  °F | °C
As of 4:54 PM on Saturday 25 Oct 2014 (Local Time) from KCEU Reporting Station
Clear Clear  
Wind Chill: 74°   Ceiling: Unl
Heat Index: 74°   Visibility: 10mi
Dew Point: 41°   Wind: 5mph
Humidity: 30%   Direction: 210°SSW
Pressure: 29.98"   Gusts: NA
Location:  34.51°N, 82.99°W
Report Text: KCEU 252054Z AUTO 21004KT 10SM CLR 23/05 A2998 RMK AO2 SLP146 T02330050 56015
Loading
Personal Weather Stations






























Interactive Weather Map
Tropical Storm Tracking
New forecast layout! Learn more

10-Day Weather Forecast

Advertisements
Track Severe Weather on mobile